sensor_id;sensor_type;location;lat;lon;timestamp;P1;durP1;ratioP1;P2;durP2;ratioP2
61200;SDS011;47065;52.898;6.992;2023-10-19T00:02:08;32.30;;;21.50;;
61200;SDS011;47065;52.898;6.992;2023-10-19T00:04:34;35.05;;;21.88;;
61200;SDS011;47065;52.898;6.992;2023-10-19T00:07:04;38.58;;;22.80;;
61200;SDS011;47065;52.898;6.992;2023-10-19T00:09:31;36.85;;;23.95;;
61200;SDS011;47065;52.898;6.992;2023-10-19T00:12:02;39.17;;;24.23;;
61200;SDS011;47065;52.898;6.992;2023-10-19T00:14:29;35.15;;;22.00;;
61200;SDS011;47065;52.898;6.992;2023-10-19T00:16:54;37.58;;;23.35;;
61200;SDS011;47065;52.898;6.992;2023-10-19T00:19:25;45.30;;;25.35;;
61200;SDS011;47065;52.898;6.992;2023-10-19T00:21:53;48.22;;;26.42;;
61200;SDS011;47065;52.898;6.992;2023-10-19T00:24:33;42.33;;;25.15;;
61200;SDS011;47065;52.898;6.992;2023-10-19T00:26:58;36.58;;;23.75;;
61200;SDS011;47065;52.898;6.992;2023-10-19T00:29:30;39.25;;;24.83;;
61200;SDS011;47065;52.898;6.992;2023-10-19T00:31:58;35.00;;;24.55;;
61200;SDS011;47065;52.898;6.992;2023-10-19T00:34:25;41.42;;;24.50;;
61200;SDS011;47065;52.898;6.992;2023-10-19T00:36:54;43.40;;;26.52;;
61200;SDS011;47065;52.898;6.992;2023-10-19T00:39:21;45.30;;;25.95;;
61200;SDS011;47065;52.898;6.992;2023-10-19T00:41:49;43.35;;;28.25;;
61200;SDS011;47065;52.898;6.992;2023-10-19T00:44:15;41.35;;;25.60;;
61200;SDS011;47065;52.898;6.992;2023-10-19T00:46:47;42.65;;;25.30;;
61200;SDS011;47065;52.898;6.992;2023-10-19T00:49:27;42.75;;;28.23;;
61200;SDS011;47065;52.898;6.992;2023-10-19T00:51:54;46.50;;;27.42;;
61200;SDS011;47065;52.898;6.992;2023-10-19T00:54:35;42.97;;;27.10;;
61200;SDS011;47065;52.898;6.992;2023-10-19T00:57:17;47.97;;;28.77;;
61200;SDS011;47065;52.898;6.992;2023-10-19T00:59:57;47.35;;;27.30;;
61200;SDS011;47065;52.898;6.992;2023-10-19T01:02:39;52.25;;;29.60;;
61200;SDS011;47065;52.898;6.992;2023-10-19T01:05:11;44.33;;;27.73;;
61200;SDS011;47065;52.898;6.992;2023-10-19T01:07:46;53.03;;;28.95;;
61200;SDS011;47065;52.898;6.992;2023-10-19T01:10:18;45.25;;;28.73;;
61200;SDS011;47065;52.898;6.992;2023-10-19T01:12:48;49.92;;;29.77;;
61200;SDS011;47065;52.898;6.992;2023-10-19T01:15:19;43.03;;;28.48;;
61200;SDS011;47065;52.898;6.992;2023-10-19T01:17:55;57.45;;;30.88;;
61200;SDS011;47065;52.898;6.992;2023-10-19T01:20:32;55.88;;;31.85;;
61200;SDS011;47065;52.898;6.992;2023-10-19T01:22:58;57.50;;;31.23;;
61200;SDS011;47065;52.898;6.992;2023-10-19T01:25:44;56.50;;;30.08;;
61200;SDS011;47065;52.898;6.992;2023-10-19T01:28:16;57.15;;;31.58;;
61200;SDS011;47065;52.898;6.992;2023-10-19T01:30:45;63.13;;;31.65;;
61200;SDS011;47065;52.898;6.992;2023-10-19T01:33:16;57.53;;;32.33;;
61200;SDS011;47065;52.898;6.992;2023-10-19T01:35:43;53.40;;;31.10;;
61200;SDS011;47065;52.898;6.992;2023-10-19T01:38:28;48.03;;;30.73;;
61200;SDS011;47065;52.898;6.992;2023-10-19T01:40:56;56.90;;;30.48;;
61200;SDS011;47065;52.898;6.992;2023-10-19T01:43:26;64.72;;;33.53;;
61200;SDS011;47065;52.898;6.992;2023-10-19T01:46:08;55.80;;;30.92;;
61200;SDS011;47065;52.898;6.992;2023-10-19T01:48:41;58.65;;;32.83;;
61200;SDS011;47065;52.898;6.992;2023-10-19T01:51:14;61.50;;;32.30;;
61200;SDS011;47065;52.898;6.992;2023-10-19T01:53:42;60.67;;;33.42;;
61200;SDS011;47065;52.898;6.992;2023-10-19T01:56:09;61.35;;;32.67;;
61200;SDS011;47065;52.898;6.992;2023-10-19T01:58:37;60.45;;;30.85;;
61200;SDS011;47065;52.898;6.992;2023-10-19T02:01:05;55.45;;;31.83;;
61200;SDS011;47065;52.898;6.992;2023-10-19T02:03:41;72.00;;;35.78;;
61200;SDS011;47065;52.898;6.992;2023-10-19T02:06:07;64.18;;;32.22;;
61200;SDS011;47065;52.898;6.992;2023-10-19T02:11:22;67.63;;;34.08;;
61200;SDS011;47065;52.898;6.992;2023-10-19T02:13:49;71.13;;;34.75;;
61200;SDS011;47065;52.898;6.992;2023-10-19T02:16:16;69.65;;;36.30;;
61200;SDS011;47065;52.898;6.992;2023-10-19T02:18:46;74.45;;;35.67;;
61200;SDS011;47065;52.898;6.992;2023-10-19T02:21:12;74.32;;;36.38;;
61200;SDS011;47065;52.898;6.992;2023-10-19T02:23:41;72.47;;;34.38;;
61200;SDS011;47065;52.898;6.992;2023-10-19T02:26:09;73.72;;;37.67;;
61200;SDS011;47065;52.898;6.992;2023-10-19T02:28:38;68.35;;;33.95;;
61200;SDS011;47065;52.898;6.992;2023-10-19T02:31:07;63.45;;;34.03;;
61200;SDS011;47065;52.898;6.992;2023-10-19T02:33:39;86.55;;;36.45;;
61200;SDS011;47065;52.898;6.992;2023-10-19T02:36:05;63.47;;;31.75;;
61200;SDS011;47065;52.898;6.992;2023-10-19T02:38:37;78.80;;;34.88;;
61200;SDS011;47065;52.898;6.992;2023-10-19T02:41:04;76.32;;;34.20;;
61200;SDS011;47065;52.898;6.992;2023-10-19T02:43:30;67.15;;;34.08;;
61200;SDS011;47065;52.898;6.992;2023-10-19T02:45:58;75.15;;;35.63;;
61200;SDS011;47065;52.898;6.992;2023-10-19T02:48:24;69.43;;;33.38;;
61200;SDS011;47065;52.898;6.992;2023-10-19T02:50:50;58.58;;;31.67;;
61200;SDS011;47065;52.898;6.992;2023-10-19T02:53:16;64.45;;;33.22;;
61200;SDS011;47065;52.898;6.992;2023-10-19T02:55:44;74.28;;;33.88;;
61200;SDS011;47065;52.898;6.992;2023-10-19T02:58:09;71.97;;;33.63;;
61200;SDS011;47065;52.898;6.992;2023-10-19T03:00:39;52.50;;;30.38;;
61200;SDS011;47065;52.898;6.992;2023-10-19T03:03:05;55.85;;;31.50;;
61200;SDS011;47065;52.898;6.992;2023-10-19T03:05:31;59.55;;;30.90;;
61200;SDS011;47065;52.898;6.992;2023-10-19T03:07:59;49.47;;;27.52;;
61200;SDS011;47065;52.898;6.992;2023-10-19T03:10:31;88.15;;;36.25;;
61200;SDS011;47065;52.898;6.992;2023-10-19T03:13:07;57.95;;;30.92;;
61200;SDS011;47065;52.898;6.992;2023-10-19T03:15:33;62.50;;;31.92;;
61200;SDS011;47065;52.898;6.992;2023-10-19T03:18:00;65.82;;;31.58;;
61200;SDS011;47065;52.898;6.992;2023-10-19T03:20:27;52.60;;;27.75;;
61200;SDS011;47065;52.898;6.992;2023-10-19T03:22:58;57.42;;;27.27;;
61200;SDS011;47065;52.898;6.992;2023-10-19T03:25:26;50.13;;;27.48;;
61200;SDS011;47065;52.898;6.992;2023-10-19T03:28:11;55.75;;;29.33;;
61200;SDS011;47065;52.898;6.992;2023-10-19T03:30:37;46.03;;;25.45;;
61200;SDS011;47065;52.898;6.992;2023-10-19T03:33:06;53.50;;;26.80;;
61200;SDS011;47065;52.898;6.992;2023-10-19T03:35:37;54.63;;;27.38;;
61200;SDS011;47065;52.898;6.992;2023-10-19T03:38:07;61.47;;;29.23;;
61200;SDS011;47065;52.898;6.992;2023-10-19T03:40:39;52.33;;;26.85;;
61200;SDS011;47065;52.898;6.992;2023-10-19T03:43:06;51.33;;;27.15;;
61200;SDS011;47065;52.898;6.992;2023-10-19T03:45:43;48.22;;;24.52;;
61200;SDS011;47065;52.898;6.992;2023-10-19T03:48:18;45.85;;;23.77;;
61200;SDS011;47065;52.898;6.992;2023-10-19T03:50:55;47.90;;;23.75;;
61200;SDS011;47065;52.898;6.992;2023-10-19T03:53:22;48.65;;;24.65;;
61200;SDS011;47065;52.898;6.992;2023-10-19T03:55:48;54.20;;;25.55;;
61200;SDS011;47065;52.898;6.992;2023-10-19T03:58:17;60.35;;;26.08;;
61200;SDS011;47065;52.898;6.992;2023-10-19T04:00:45;42.97;;;22.92;;
61200;SDS011;47065;52.898;6.992;2023-10-19T04:03:13;60.42;;;27.38;;
61200;SDS011;47065;52.898;6.992;2023-10-19T04:05:39;47.67;;;24.30;;
61200;SDS011;47065;52.898;6.992;2023-10-19T04:08:06;54.90;;;25.45;;
61200;SDS011;47065;52.898;6.992;2023-10-19T04:10:45;51.13;;;23.92;;
61200;SDS011;47065;52.898;6.992;2023-10-19T04:13:34;55.35;;;24.55;;
61200;SDS011;47065;52.898;6.992;2023-10-19T04:16:01;57.00;;;24.63;;
61200;SDS011;47065;52.898;6.992;2023-10-19T04:18:27;67.57;;;26.35;;
61200;SDS011;47065;52.898;6.992;2023-10-19T04:20:53;46.42;;;22.52;;
61200;SDS011;47065;52.898;6.992;2023-10-19T04:23:19;41.05;;;21.77;;
61200;SDS011;47065;52.898;6.992;2023-10-19T04:25:46;38.45;;;20.55;;
61200;SDS011;47065;52.898;6.992;2023-10-19T04:28:12;43.80;;;20.63;;
61200;SDS011;47065;52.898;6.992;2023-10-19T04:30:41;33.92;;;20.30;;
61200;SDS011;47065;52.898;6.992;2023-10-19T04:33:07;41.50;;;20.30;;
61200;SDS011;47065;52.898;6.992;2023-10-19T04:35:37;35.95;;;19.95;;
61200;SDS011;47065;52.898;6.992;2023-10-19T04:38:06;39.63;;;20.23;;
61200;SDS011;47065;52.898;6.992;2023-10-19T04:40:31;34.65;;;19.33;;
61200;SDS011;47065;52.898;6.992;2023-10-19T04:42:57;36.30;;;20.13;;
61200;SDS011;47065;52.898;6.992;2023-10-19T04:45:23;60.08;;;21.65;;
61200;SDS011;47065;52.898;6.992;2023-10-19T04:47:52;38.28;;;21.48;;
61200;SDS011;47065;52.898;6.992;2023-10-19T04:50:18;44.22;;;21.30;;
61200;SDS011;47065;52.898;6.992;2023-10-19T04:52:44;42.72;;;21.80;;
61200;SDS011;47065;52.898;6.992;2023-10-19T04:55:09;34.78;;;19.13;;
61200;SDS011;47065;52.898;6.992;2023-10-19T04:57:35;42.95;;;21.40;;
61200;SDS011;47065;52.898;6.992;2023-10-19T05:00:01;51.83;;;22.05;;
61200;SDS011;47065;52.898;6.992;2023-10-19T05:02:28;37.80;;;18.98;;
61200;SDS011;47065;52.898;6.992;2023-10-19T05:04:54;45.80;;;21.50;;
61200;SDS011;47065;52.898;6.992;2023-10-19T05:07:29;43.83;;;20.67;;
61200;SDS011;47065;52.898;6.992;2023-10-19T05:10:07;37.00;;;20.33;;
61200;SDS011;47065;52.898;6.992;2023-10-19T05:12:38;50.80;;;22.83;;
61200;SDS011;47065;52.898;6.992;2023-10-19T05:15:48;42.67;;;20.10;;
61200;SDS011;47065;52.898;6.992;2023-10-19T05:18:34;59.78;;;23.55;;
61200;SDS011;47065;52.898;6.992;2023-10-19T05:21:06;53.17;;;23.95;;
61200;SDS011;47065;52.898;6.992;2023-10-19T05:27:09;37.20;;;18.73;;
61200;SDS011;47065;52.898;6.992;2023-10-19T05:29:50;48.95;;;21.92;;
61200;SDS011;47065;52.898;6.992;2023-10-19T05:32:16;48.80;;;20.95;;
61200;SDS011;47065;52.898;6.992;2023-10-19T05:34:42;42.35;;;19.67;;
61200;SDS011;47065;52.898;6.992;2023-10-19T05:37:07;46.60;;;20.15;;
61200;SDS011;47065;52.898;6.992;2023-10-19T05:39:34;37.63;;;18.90;;
61200;SDS011;47065;52.898;6.992;2023-10-19T05:42:01;38.95;;;18.38;;
61200;SDS011;47065;52.898;6.992;2023-10-19T05:44:34;30.30;;;16.13;;
61200;SDS011;47065;52.898;6.992;2023-10-19T05:47:00;40.78;;;19.15;;
61200;SDS011;47065;52.898;6.992;2023-10-19T05:49:29;30.17;;;15.63;;
61200;SDS011;47065;52.898;6.992;2023-10-19T05:51:54;29.20;;;15.45;;
61200;SDS011;47065;52.898;6.992;2023-10-19T05:54:26;30.23;;;15.88;;
61200;SDS011;47065;52.898;6.992;2023-10-19T05:56:52;28.50;;;14.63;;
61200;SDS011;47065;52.898;6.992;2023-10-19T05:59:18;36.72;;;16.77;;
61200;SDS011;47065;52.898;6.992;2023-10-19T06:01:44;26.88;;;14.77;;
61200;SDS011;47065;52.898;6.992;2023-10-19T06:04:13;27.40;;;15.68;;
61200;SDS011;47065;52.898;6.992;2023-10-19T06:06:38;29.80;;;15.32;;
61200;SDS011;47065;52.898;6.992;2023-10-19T06:09:07;25.65;;;14.23;;
61200;SDS011;47065;52.898;6.992;2023-10-19T06:11:36;30.17;;;15.57;;
61200;SDS011;47065;52.898;6.992;2023-10-19T06:14:03;27.02;;;14.48;;
61200;SDS011;47065;52.898;6.992;2023-10-19T06:16:32;34.35;;;16.30;;
61200;SDS011;47065;52.898;6.992;2023-10-19T06:18:59;32.05;;;15.43;;
61200;SDS011;47065;52.898;6.992;2023-10-19T06:21:25;29.35;;;14.45;;
61200;SDS011;47065;52.898;6.992;2023-10-19T06:23:51;30.52;;;14.80;;
61200;SDS011;47065;52.898;6.992;2023-10-19T06:26:18;27.38;;;14.25;;
61200;SDS011;47065;52.898;6.992;2023-10-19T06:28:44;34.78;;;15.60;;
61200;SDS011;47065;52.898;6.992;2023-10-19T06:31:09;27.83;;;14.23;;
61200;SDS011;47065;52.898;6.992;2023-10-19T06:33:35;29.15;;;16.25;;
61200;SDS011;47065;52.898;6.992;2023-10-19T06:36:02;27.13;;;14.70;;
61200;SDS011;47065;52.898;6.992;2023-10-19T06:38:31;30.17;;;15.25;;
61200;SDS011;47065;52.898;6.992;2023-10-19T06:40:57;31.08;;;14.40;;
61200;SDS011;47065;52.898;6.992;2023-10-19T06:43:24;22.65;;;13.43;;
61200;SDS011;47065;52.898;6.992;2023-10-19T06:45:53;27.40;;;14.32;;
61200;SDS011;47065;52.898;6.992;2023-10-19T06:48:20;20.92;;;14.10;;
61200;SDS011;47065;52.898;6.992;2023-10-19T06:50:46;28.20;;;14.57;;
61200;SDS011;47065;52.898;6.992;2023-10-19T06:53:12;24.23;;;14.70;;
61200;SDS011;47065;52.898;6.992;2023-10-19T06:55:37;27.10;;;14.15;;
61200;SDS011;47065;52.898;6.992;2023-10-19T06:58:03;27.23;;;14.40;;
61200;SDS011;47065;52.898;6.992;2023-10-19T07:00:30;33.28;;;15.02;;
61200;SDS011;47065;52.898;6.992;2023-10-19T07:02:56;26.63;;;15.25;;
61200;SDS011;47065;52.898;6.992;2023-10-19T07:05:25;23.25;;;13.63;;
61200;SDS011;47065;52.898;6.992;2023-10-19T07:07:54;23.42;;;14.27;;
61200;SDS011;47065;52.898;6.992;2023-10-19T07:10:21;26.45;;;14.52;;
61200;SDS011;47065;52.898;6.992;2023-10-19T07:12:50;21.27;;;12.13;;
61200;SDS011;47065;52.898;6.992;2023-10-19T07:15:17;29.23;;;14.48;;
61200;SDS011;47065;52.898;6.992;2023-10-19T07:17:47;31.98;;;15.98;;
61200;SDS011;47065;52.898;6.992;2023-10-19T07:20:14;28.38;;;14.48;;
61200;SDS011;47065;52.898;6.992;2023-10-19T07:22:50;36.15;;;17.00;;
61200;SDS011;47065;52.898;6.992;2023-10-19T07:25:35;27.85;;;15.05;;
61200;SDS011;47065;52.898;6.992;2023-10-19T07:28:16;29.08;;;15.40;;
61200;SDS011;47065;52.898;6.992;2023-10-19T07:30:42;28.50;;;14.80;;
61200;SDS011;47065;52.898;6.992;2023-10-19T07:33:09;31.42;;;15.38;;
61200;SDS011;47065;52.898;6.992;2023-10-19T07:35:35;24.90;;;14.85;;
61200;SDS011;47065;52.898;6.992;2023-10-19T07:38:04;27.33;;;13.95;;
61200;SDS011;47065;52.898;6.992;2023-10-19T07:40:32;30.05;;;15.63;;
61200;SDS011;47065;52.898;6.992;2023-10-19T07:42:59;32.38;;;16.42;;
61200;SDS011;47065;52.898;6.992;2023-10-19T07:45:24;30.23;;;15.38;;
61200;SDS011;47065;52.898;6.992;2023-10-19T07:47:50;29.50;;;15.10;;
61200;SDS011;47065;52.898;6.992;2023-10-19T07:50:16;25.95;;;14.02;;
61200;SDS011;47065;52.898;6.992;2023-10-19T07:52:45;22.95;;;12.80;;
61200;SDS011;47065;52.898;6.992;2023-10-19T07:55:13;26.50;;;13.95;;
61200;SDS011;47065;52.898;6.992;2023-10-19T07:57:40;21.35;;;13.07;;
61200;SDS011;47065;52.898;6.992;2023-10-19T08:00:06;25.85;;;14.15;;
61200;SDS011;47065;52.898;6.992;2023-10-19T08:02:34;23.83;;;13.77;;
61200;SDS011;47065;52.898;6.992;2023-10-19T08:05:03;23.77;;;13.95;;
61200;SDS011;47065;52.898;6.992;2023-10-19T08:07:31;27.40;;;14.13;;
61200;SDS011;47065;52.898;6.992;2023-10-19T08:09:59;28.48;;;15.63;;
61200;SDS011;47065;52.898;6.992;2023-10-19T08:12:25;29.83;;;15.68;;
61200;SDS011;47065;52.898;6.992;2023-10-19T08:14:52;30.08;;;15.82;;
61200;SDS011;47065;52.898;6.992;2023-10-19T08:17:18;25.83;;;15.88;;
61200;SDS011;47065;52.898;6.992;2023-10-19T08:19:44;23.38;;;14.38;;
61200;SDS011;47065;52.898;6.992;2023-10-19T08:22:10;28.77;;;15.98;;
61200;SDS011;47065;52.898;6.992;2023-10-19T08:24:35;25.85;;;16.02;;
61200;SDS011;47065;52.898;6.992;2023-10-19T08:27:01;30.25;;;16.55;;
61200;SDS011;47065;52.898;6.992;2023-10-19T08:29:30;27.70;;;15.70;;
61200;SDS011;47065;52.898;6.992;2023-10-19T08:31:56;39.38;;;18.02;;
61200;SDS011;47065;52.898;6.992;2023-10-19T08:34:22;31.85;;;16.33;;
61200;SDS011;47065;52.898;6.992;2023-10-19T08:36:50;24.23;;;15.02;;
61200;SDS011;47065;52.898;6.992;2023-10-19T08:39:16;35.63;;;19.88;;
61200;SDS011;47065;52.898;6.992;2023-10-19T08:41:43;29.77;;;17.17;;
61200;SDS011;47065;52.898;6.992;2023-10-19T08:44:08;33.25;;;18.40;;
61200;SDS011;47065;52.898;6.992;2023-10-19T08:46:41;43.17;;;19.83;;
61200;SDS011;47065;52.898;6.992;2023-10-19T08:49:09;27.67;;;15.98;;
61200;SDS011;47065;52.898;6.992;2023-10-19T08:51:37;28.95;;;17.00;;
61200;SDS011;47065;52.898;6.992;2023-10-19T08:54:04;33.97;;;18.48;;
61200;SDS011;47065;52.898;6.992;2023-10-19T08:56:31;35.75;;;18.30;;
61200;SDS011;47065;52.898;6.992;2023-10-19T08:58:59;37.20;;;19.88;;
61200;SDS011;47065;52.898;6.992;2023-10-19T09:01:27;35.08;;;19.63;;
61200;SDS011;47065;52.898;6.992;2023-10-19T09:03:56;30.25;;;17.02;;
61200;SDS011;47065;52.898;6.992;2023-10-19T09:06:23;32.40;;;17.65;;
61200;SDS011;47065;52.898;6.992;2023-10-19T09:08:49;25.05;;;15.30;;
61200;SDS011;47065;52.898;6.992;2023-10-19T09:11:14;35.60;;;19.42;;
61200;SDS011;47065;52.898;6.992;2023-10-19T09:13:44;37.47;;;19.38;;
61200;SDS011;47065;52.898;6.992;2023-10-19T09:16:18;34.30;;;18.80;;
61200;SDS011;47065;52.898;6.992;2023-10-19T09:18:45;31.75;;;19.85;;
61200;SDS011;47065;52.898;6.992;2023-10-19T09:21:15;32.03;;;19.35;;
61200;SDS011;47065;52.898;6.992;2023-10-19T09:23:59;38.58;;;19.58;;
61200;SDS011;47065;52.898;6.992;2023-10-19T09:26:25;33.65;;;18.13;;
61200;SDS011;47065;52.898;6.992;2023-10-19T09:28:51;35.47;;;19.17;;
61200;SDS011;47065;52.898;6.992;2023-10-19T09:31:19;34.35;;;18.48;;
61200;SDS011;47065;52.898;6.992;2023-10-19T09:33:46;31.60;;;19.08;;
61200;SDS011;47065;52.898;6.992;2023-10-19T09:36:14;29.67;;;18.55;;
61200;SDS011;47065;52.898;6.992;2023-10-19T09:41:22;25.60;;;16.55;;
61200;SDS011;47065;52.898;6.992;2023-10-19T09:43:53;29.75;;;17.98;;
61200;SDS011;47065;52.898;6.992;2023-10-19T09:46:29;31.85;;;17.70;;
61200;SDS011;47065;52.898;6.992;2023-10-19T09:48:57;33.13;;;17.40;;
61200;SDS011;47065;52.898;6.992;2023-10-19T09:51:24;30.95;;;17.17;;
61200;SDS011;47065;52.898;6.992;2023-10-19T09:53:57;30.27;;;17.38;;
61200;SDS011;47065;52.898;6.992;2023-10-19T09:56:26;31.13;;;18.02;;
61200;SDS011;47065;52.898;6.992;2023-10-19T09:59:21;32.15;;;18.25;;
61200;SDS011;47065;52.898;6.992;2023-10-19T10:02:07;30.08;;;18.17;;
61200;SDS011;47065;52.898;6.992;2023-10-19T10:04:37;28.25;;;17.13;;
61200;SDS011;47065;52.898;6.992;2023-10-19T10:07:05;27.15;;;17.27;;
61200;SDS011;47065;52.898;6.992;2023-10-19T10:09:36;25.85;;;16.33;;
61200;SDS011;47065;52.898;6.992;2023-10-19T10:12:24;25.52;;;15.80;;
61200;SDS011;47065;52.898;6.992;2023-10-19T10:14:52;26.50;;;16.85;;
61200;SDS011;47065;52.898;6.992;2023-10-19T10:17:38;29.40;;;18.10;;
61200;SDS011;47065;52.898;6.992;2023-10-19T10:25:06;29.08;;;18.05;;
61200;SDS011;47065;52.898;6.992;2023-10-19T10:27:32;28.58;;;16.98;;
61200;SDS011;47065;52.898;6.992;2023-10-19T10:30:02;24.95;;;16.73;;
61200;SDS011;47065;52.898;6.992;2023-10-19T10:32:49;21.23;;;15.98;;
61200;SDS011;47065;52.898;6.992;2023-10-19T10:38:02;26.50;;;17.55;;
61200;SDS011;47065;52.898;6.992;2023-10-19T10:40:31;26.67;;;17.73;;
61200;SDS011;47065;52.898;6.992;2023-10-19T10:43:06;24.42;;;15.88;;
61200;SDS011;47065;52.898;6.992;2023-10-19T10:45:32;29.55;;;17.58;;
61200;SDS011;47065;52.898;6.992;2023-10-19T10:47:58;24.02;;;17.63;;
61200;SDS011;47065;52.898;6.992;2023-10-19T10:50:26;28.85;;;18.73;;
61200;SDS011;47065;52.898;6.992;2023-10-19T10:52:53;29.63;;;17.48;;
61200;SDS011;47065;52.898;6.992;2023-10-19T10:55:22;27.83;;;18.20;;
61200;SDS011;47065;52.898;6.992;2023-10-19T10:57:52;25.48;;;17.70;;
61200;SDS011;47065;52.898;6.992;2023-10-19T11:00:19;27.48;;;17.80;;
61200;SDS011;47065;52.898;6.992;2023-10-19T11:02:58;27.98;;;19.02;;
61200;SDS011;47065;52.898;6.992;2023-10-19T11:05:26;26.33;;;17.33;;
61200;SDS011;47065;52.898;6.992;2023-10-19T11:08:02;30.38;;;17.90;;
61200;SDS011;47065;52.898;6.992;2023-10-19T11:10:30;26.23;;;17.70;;
61200;SDS011;47065;52.898;6.992;2023-10-19T11:13:00;23.65;;;16.15;;
61200;SDS011;47065;52.898;6.992;2023-10-19T11:15:29;23.20;;;16.23;;
61200;SDS011;47065;52.898;6.992;2023-10-19T11:17:55;23.25;;;15.13;;
61200;SDS011;47065;52.898;6.992;2023-10-19T11:20:23;22.88;;;14.57;;
61200;SDS011;47065;52.898;6.992;2023-10-19T11:22:50;24.13;;;15.73;;
61200;SDS011;47065;52.898;6.992;2023-10-19T11:25:18;26.20;;;16.70;;
61200;SDS011;47065;52.898;6.992;2023-10-19T11:27:57;22.92;;;16.60;;
61200;SDS011;47065;52.898;6.992;2023-10-19T11:30:25;23.35;;;16.98;;
61200;SDS011;47065;52.898;6.992;2023-10-19T11:32:52;23.85;;;16.35;;
61200;SDS011;47065;52.898;6.992;2023-10-19T11:35:22;29.40;;;17.77;;
61200;SDS011;47065;52.898;6.992;2023-10-19T11:37:49;29.77;;;18.05;;
61200;SDS011;47065;52.898;6.992;2023-10-19T11:40:15;26.52;;;15.73;;
61200;SDS011;47065;52.898;6.992;2023-10-19T11:42:41;22.70;;;16.08;;
61200;SDS011;47065;52.898;6.992;2023-10-19T11:45:07;27.20;;;17.80;;
61200;SDS011;47065;52.898;6.992;2023-10-19T11:47:33;23.75;;;16.55;;
61200;SDS011;47065;52.898;6.992;2023-10-19T11:50:00;24.25;;;16.73;;
61200;SDS011;47065;52.898;6.992;2023-10-19T11:52:25;27.92;;;17.23;;
61200;SDS011;47065;52.898;6.992;2023-10-19T11:54:52;27.92;;;16.58;;
61200;SDS011;47065;52.898;6.992;2023-10-19T11:57:19;26.38;;;16.35;;
61200;SDS011;47065;52.898;6.992;2023-10-19T11:59:44;21.60;;;15.43;;
61200;SDS011;47065;52.898;6.992;2023-10-19T12:02:10;26.33;;;16.33;;
61200;SDS011;47065;52.898;6.992;2023-10-19T12:04:36;26.75;;;15.85;;
61200;SDS011;47065;52.898;6.992;2023-10-19T12:07:05;24.13;;;16.65;;
61200;SDS011;47065;52.898;6.992;2023-10-19T12:09:34;21.77;;;16.77;;
61200;SDS011;47065;52.898;6.992;2023-10-19T12:12:03;25.60;;;17.90;;
61200;SDS011;47065;52.898;6.992;2023-10-19T12:14:31;25.55;;;17.27;;
61200;SDS011;47065;52.898;6.992;2023-10-19T12:16:59;27.70;;;18.40;;
61200;SDS011;47065;52.898;6.992;2023-10-19T12:19:27;25.13;;;17.40;;
61200;SDS011;47065;52.898;6.992;2023-10-19T12:21:56;24.48;;;17.15;;
61200;SDS011;47065;52.898;6.992;2023-10-19T12:24:22;25.75;;;16.27;;
61200;SDS011;47065;52.898;6.992;2023-10-19T12:26:49;20.13;;;16.10;;
61200;SDS011;47065;52.898;6.992;2023-10-19T12:29:16;19.75;;;14.95;;
61200;SDS011;47065;52.898;6.992;2023-10-19T12:31:45;19.77;;;15.93;;
61200;SDS011;47065;52.898;6.992;2023-10-19T12:34:11;21.17;;;16.02;;
61200;SDS011;47065;52.898;6.992;2023-10-19T12:36:37;23.35;;;15.48;;
61200;SDS011;47065;52.898;6.992;2023-10-19T12:39:03;21.30;;;15.43;;
61200;SDS011;47065;52.898;6.992;2023-10-19T12:41:31;20.63;;;15.05;;
61200;SDS011;47065;52.898;6.992;2023-10-19T12:43:57;26.05;;;17.73;;
61200;SDS011;47065;52.898;6.992;2023-10-19T12:46:26;24.27;;;19.17;;
61200;SDS011;47065;52.898;6.992;2023-10-19T12:48:55;22.27;;;18.10;;
61200;SDS011;47065;52.898;6.992;2023-10-19T12:51:21;24.00;;;18.58;;
61200;SDS011;47065;52.898;6.992;2023-10-19T12:53:54;27.55;;;19.02;;
61200;SDS011;47065;52.898;6.992;2023-10-19T12:56:20;25.52;;;18.85;;
61200;SDS011;47065;52.898;6.992;2023-10-19T12:58:49;23.23;;;17.10;;
61200;SDS011;47065;52.898;6.992;2023-10-19T13:01:15;24.45;;;17.95;;
61200;SDS011;47065;52.898;6.992;2023-10-19T13:03:45;19.83;;;16.70;;
61200;SDS011;47065;52.898;6.992;2023-10-19T13:06:12;22.17;;;17.42;;
61200;SDS011;47065;52.898;6.992;2023-10-19T13:08:38;22.95;;;17.25;;
61200;SDS011;47065;52.898;6.992;2023-10-19T13:11:06;21.42;;;16.02;;
61200;SDS011;47065;52.898;6.992;2023-10-19T13:13:32;23.08;;;16.08;;
61200;SDS011;47065;52.898;6.992;2023-10-19T13:15:57;21.27;;;16.83;;
61200;SDS011;47065;52.898;6.992;2023-10-19T13:18:24;22.20;;;16.40;;
61200;SDS011;47065;52.898;6.992;2023-10-19T13:20:53;21.95;;;16.63;;
61200;SDS011;47065;52.898;6.992;2023-10-19T13:23:19;20.83;;;16.50;;
61200;SDS011;47065;52.898;6.992;2023-10-19T13:25:48;23.35;;;16.98;;
61200;SDS011;47065;52.898;6.992;2023-10-19T13:28:17;24.40;;;18.20;;
61200;SDS011;47065;52.898;6.992;2023-10-19T13:30:48;27.15;;;17.73;;
61200;SDS011;47065;52.898;6.992;2023-10-19T13:33:15;25.60;;;18.02;;
61200;SDS011;47065;52.898;6.992;2023-10-19T13:35:42;25.92;;;18.25;;
61200;SDS011;47065;52.898;6.992;2023-10-19T13:38:10;27.08;;;18.10;;
61200;SDS011;47065;52.898;6.992;2023-10-19T13:40:40;28.92;;;19.83;;
61200;SDS011;47065;52.898;6.992;2023-10-19T13:43:07;29.15;;;19.98;;
61200;SDS011;47065;52.898;6.992;2023-10-19T13:45:39;28.02;;;18.70;;
61200;SDS011;47065;52.898;6.992;2023-10-19T13:48:06;31.30;;;20.45;;
61200;SDS011;47065;52.898;6.992;2023-10-19T13:50:33;27.45;;;20.77;;
61200;SDS011;47065;52.898;6.992;2023-10-19T13:53:00;25.88;;;18.75;;
61200;SDS011;47065;52.898;6.992;2023-10-19T13:55:29;29.00;;;20.70;;
61200;SDS011;47065;52.898;6.992;2023-10-19T13:57:55;27.60;;;19.30;;
61200;SDS011;47065;52.898;6.992;2023-10-19T14:00:22;26.17;;;19.00;;
61200;SDS011;47065;52.898;6.992;2023-10-19T14:02:49;25.55;;;18.08;;
61200;SDS011;47065;52.898;6.992;2023-10-19T14:05:19;29.20;;;18.42;;
61200;SDS011;47065;52.898;6.992;2023-10-19T14:07:48;28.38;;;18.33;;
61200;SDS011;47065;52.898;6.992;2023-10-19T14:10:14;25.58;;;18.27;;
61200;SDS011;47065;52.898;6.992;2023-10-19T14:12:40;24.42;;;17.05;;
61200;SDS011;47065;52.898;6.992;2023-10-19T14:15:11;27.02;;;18.98;;
61200;SDS011;47065;52.898;6.992;2023-10-19T14:17:39;25.35;;;17.25;;
61200;SDS011;47065;52.898;6.992;2023-10-19T14:20:05;29.15;;;18.10;;
61200;SDS011;47065;52.898;6.992;2023-10-19T14:22:31;29.08;;;18.85;;
61200;SDS011;47065;52.898;6.992;2023-10-19T14:25:00;28.73;;;17.63;;
61200;SDS011;47065;52.898;6.992;2023-10-19T14:27:33;28.35;;;18.70;;
61200;SDS011;47065;52.898;6.992;2023-10-19T14:29:59;28.92;;;17.30;;
61200;SDS011;47065;52.898;6.992;2023-10-19T14:32:28;30.48;;;18.65;;
61200;SDS011;47065;52.898;6.992;2023-10-19T14:34:54;34.38;;;19.50;;
61200;SDS011;47065;52.898;6.992;2023-10-19T14:37:19;22.58;;;17.42;;
61200;SDS011;47065;52.898;6.992;2023-10-19T14:39:45;33.20;;;18.35;;
61200;SDS011;47065;52.898;6.992;2023-10-19T14:42:11;26.45;;;17.98;;
61200;SDS011;47065;52.898;6.992;2023-10-19T14:44:37;29.92;;;17.75;;
61200;SDS011;47065;52.898;6.992;2023-10-19T14:47:06;34.22;;;19.40;;
61200;SDS011;47065;52.898;6.992;2023-10-19T14:49:31;32.05;;;18.75;;